KEZFKTGI

Guest
Details From KEZF - SHANNON
To KTGI - TANGIER ISLAND
Flight Number -
Tags generated
Created
Modified
Stats Distance 74 nm / 137 km
Max Altitude 2,500 ft / 762 m
Waypoints 3
Social Downloads 1
Likes 0
Share VATSIM

Download

Looking for another format? Having issues loading an existing format? Contact us
Advertisement - Login to hide

Notes

Basic altitude profile: - Ascent Rate: 1200ft/min - Ascent Speed: 90kts - Cruise Altitude: 2500ft - Cruise Speed: 140kts - Descent Rate: 700ft/min - Descent Speed: 90kts

Route

KEZF GRUBY KTGI

ID Type Via Altitude Latitude Longitude Leg Dist Tot Dist Heading (true) Name
O KEZF APT - 0 ft / 0 m 38.26744˚ -77.44974˚ - 0 nm - SHANNON
GRUBY FIX - 2,500 ft / 762 m 38.20816˚ -77.17398˚ 13 nm 13 nm 105° / 105° -
O KTGI APT - 0 ft / 0 m 37.82508˚ -75.99767˚ 60 nm 73 nm 112° / 113° TANGIER ISLAND

Altitude Profile

Advertisement - Login to hide

KEZF

Details ICAO KEZF
Name SHANNON
Region United States
Timezone America/New_York (UTC-5.0)
Stats Elevation 85 ft / 26 m (AMSL)
Location 38.267441° -77.449737°
Runways 2
Magnetic Variation 10.457° W

METAR

KEZF 181715Z AUTO 21009KT 10SM CLR 13/04 A3006 RMK AO2 T01250039

Decode

TAF

Not found

Departure Runways

ID Width Length Bearing (true) Bearing (mag) Surface Threshold Offset Overrun Length
06 100 ft / 30 m 2,909 ft / 887 m 45.27° 55.73° Asphalt 143 ft / 44 m 0 ft / 0 m
15 150 ft / 46 m 1,306 ft / 398 m 144.61° 155.07° Dirt 0 ft / 0 m 0 ft / 0 m
24 100 ft / 30 m 2,909 ft / 887 m 225.27° 235.73° Asphalt 35 ft / 11 m 0 ft / 0 m
33 150 ft / 46 m 1,306 ft / 398 m 324.61° 335.07° Dirt 0 ft / 0 m 0 ft / 0 m

KTGI

Details ICAO KTGI
Name TANGIER ISLAND
Region United States
Timezone America/New_York (UTC-5.0)
Stats Elevation 5 ft / 2 m (AMSL)
Location 37.825083° -75.997666°
Runways 1
Magnetic Variation 11.206° W

METAR

KTGI 181718Z AUTO 29004KT 10SM CLR 08/04 A3008 RMK AO1

Decode

TAF

Not found

Destination Runways

ID Width Length Bearing (true) Bearing (mag) Surface Threshold Offset Overrun Length
02 75 ft / 23 m 3,005 ft / 916 m 7.35° 18.56° Asphalt 0 ft / 0 m 0 ft / 0 m
20 75 ft / 23 m 3,005 ft / 916 m 187.35° 198.56° Asphalt 98 ft / 30 m 0 ft / 0 m